Time;durP1;ratioP1;P1;durP2;ratioP2;P2;SDS_P1;SDS_P2;PMS_P1;PMS_P2;Temp;Humidity;BMP_temperature;BMP_pressure;BME280_temperature;BME280_humidity;BME280_pressure;Samples;Min_cycle;Max_cycle;Signal;HPM_P1;HPM_P2
2022/01/08 00:00:38;;;;;;;23.10;18.85;;;;;;;;;;5053170;28;20052;-73
2022/01/08 00:03:05;;;;;;;22.67;19.15;;;;;;;;;;5035034;28;20049;-72
2022/01/08 00:05:32;;;;;;;25.25;18.42;;;;;;;;;;5052969;28;20057;-73
2022/01/08 00:07:59;;;;;;;21.58;18.35;;;;;;;;;;5034930;28;20057;-73
2022/01/08 00:10:26;;;;;;;20.45;18.38;;;;;;;;;;5035135;28;20213;-73
2022/01/08 00:12:53;;;;;;;19.67;16.27;;;;;;;;;;5053309;28;20053;-75
2022/01/08 00:15:22;;;;;;;22.45;17.27;;;;;;;;;;5062574;28;20078;-74
2022/01/08 00:17:49;;;;;;;19.45;16.33;;;;;;;;;;5066552;28;20052;-73
2022/01/08 00:20:16;;;;;;;17.75;16.00;;;;;;;;;;5045433;28;20045;-74
2022/01/08 00:22:43;;;;;;;16.90;15.00;;;;;;;;;;5054180;28;20142;-73
2022/01/08 00:25:11;;;;;;;17.77;15.52;;;;;;;;;;5071799;28;20036;-74
2022/01/08 00:27:38;;;;;;;18.35;16.05;;;;;;;;;;5071297;28;20060;-73
2022/01/08 00:30:05;;;;;;;25.75;18.58;;;;;;;;;;5053877;28;20144;-73
2022/01/08 00:32:32;;;;;;;21.17;18.02;;;;;;;;;;5072190;28;20040;-73
2022/01/08 00:34:59;;;;;;;23.23;20.80;;;;;;;;;;5072133;28;20957;-74
2022/01/08 00:37:26;;;;;;;23.55;19.85;;;;;;;;;;5054269;28;20076;-73
2022/01/08 00:39:53;;;;;;;23.83;20.33;;;;;;;;;;5053812;28;20047;-73
2022/01/08 00:42:20;;;;;;;21.90;18.33;;;;;;;;;;5063178;28;20073;-73
2022/01/08 00:44:47;;;;;;;21.35;18.98;;;;;;;;;;5035086;28;20056;-73
2022/01/08 00:47:14;;;;;;;21.55;18.70;;;;;;;;;;5071650;28;20079;-73
2022/01/08 00:49:42;;;;;;;22.77;19.90;;;;;;;;;;5072050;28;20052;-73
2022/01/08 00:52:09;;;;;;;20.50;18.40;;;;;;;;;;5071462;28;20516;-74
2022/01/08 00:54:38;;;;;;;22.77;17.95;;;;;;;;;;5070642;28;20082;-73
2022/01/08 00:57:06;;;;;;;24.65;18.70;;;;;;;;;;5054344;28;20131;-73
2022/01/08 00:59:33;;;;;;;21.30;19.05;;;;;;;;;;5053469;28;20055;-73
2022/01/08 01:02:00;;;;;;;24.58;19.65;;;;;;;;;;5071759;28;20041;-73
2022/01/08 01:04:27;;;;;;;21.55;19.35;;;;;;;;;;5071412;28;20045;-73
2022/01/08 01:06:54;;;;;;;23.75;17.52;;;;;;;;;;5054283;28;20079;-73
2022/01/08 01:09:21;;;;;;;19.10;17.10;;;;;;;;;;5053593;28;20040;-73
2022/01/08 01:11:48;;;;;;;22.73;20.20;;;;;;;;;;5070094;28;20053;-73
2022/01/08 01:14:15;;;;;;;20.25;18.15;;;;;;;;;;5053595;28;20080;-73
2022/01/08 01:16:42;;;;;;;19.65;16.50;;;;;;;;;;5071203;28;20046;-72
2022/01/08 01:19:09;;;;;;;22.42;17.35;;;;;;;;;;5053475;28;20073;-73
2022/01/08 01:21:36;;;;;;;19.30;17.30;;;;;;;;;;5053316;28;20604;-73
2022/01/08 01:24:10;;;;;;;17.98;16.02;;;;;;;;;;5053248;28;20139;-74
2022/01/08 01:26:49;;;;;;;20.42;16.85;;;;;;;;;;5069768;28;20051;-73
2022/01/08 01:48:26;;;;;;;18.40;16.05;;;;;;;;;;5036167;28;20049;-72
2022/01/08 01:50:53;;;;;;;18.60;15.95;;;;;;;;;;5070036;28;20562;-74
2022/01/08 01:53:20;;;;;;;20.88;18.63;;;;;;;;;;5057208;28;20052;-74
2022/01/08 01:55:48;;;;;;;20.48;18.38;;;;;;;;;;5074990;28;20041;-73
2022/01/08 01:58:15;;;;;;;20.50;16.48;;;;;;;;;;5074743;28;20048;-73
2022/01/08 02:00:43;;;;;;;22.50;18.25;;;;;;;;;;5074411;28;20045;-74
2022/01/08 02:03:11;;;;;;;22.33;19.15;;;;;;;;;;5057345;28;20045;-74
2022/01/08 02:05:38;;;;;;;19.30;17.33;;;;;;;;;;5057717;28;20056;-73
2022/01/08 02:08:05;;;;;;;21.52;17.25;;;;;;;;;;5056553;28;20052;-75
2022/01/08 02:10:32;;;;;;;21.88;19.58;;;;;;;;;;5074896;28;20048;-74
2022/01/08 02:13:00;;;;;;;18.40;16.48;;;;;;;;;;5056731;28;20524;-74
2022/01/08 02:15:27;;;;;;;18.27;16.30;;;;;;;;;;5072405;28;20053;-73
2022/01/08 02:17:54;;;;;;;20.70;18.55;;;;;;;;;;5047539;28;20076;-74
2022/01/08 02:20:21;;;;;;;20.13;18.02;;;;;;;;;;5072685;28;20087;-73
2022/01/08 02:22:48;;;;;;;18.05;16.17;;;;;;;;;;5037672;28;20081;-73
2022/01/08 02:25:21;;;;;;;18.50;16.58;;;;;;;;;;5054949;28;20381;-74
2022/01/08 02:27:48;;;;;;;23.85;18.73;;;;;;;;;;5037533;28;20049;-73
2022/01/08 02:30:15;;;;;;;21.38;16.83;;;;;;;;;;5037142;28;20493;-73
2022/01/08 02:32:42;;;;;;;17.73;15.88;;;;;;;;;;5021104;28;20076;-73
2022/01/08 02:35:10;;;;;;;19.30;16.92;;;;;;;;;;5069829;28;20412;-74
2022/01/08 02:37:37;;;;;;;17.98;15.75;;;;;;;;;;5058952;28;20060;-73
2022/01/08 02:40:06;;;;;;;17.42;15.73;;;;;;;;;;5037190;28;20090;-74
2022/01/08 02:42:39;;;;;;;17.60;15.80;;;;;;;;;;5054428;28;20405;-73
2022/01/08 02:45:07;;;;;;;18.92;15.10;;;;;;;;;;5039435;28;20079;-74
2022/01/08 02:47:34;;;;;;;20.92;18.70;;;;;;;;;;5053056;28;20075;-74
2022/01/08 02:50:01;;;;;;;19.42;17.48;;;;;;;;;;5020421;28;20041;-73
2022/01/08 02:52:28;;;;;;;23.90;15.63;;;;;;;;;;5053681;28;20684;-73
2022/01/08 02:54:55;;;;;;;16.75;15.00;;;;;;;;;;5020423;28;20056;-73
2022/01/08 02:57:22;;;;;;;19.90;16.75;;;;;;;;;;5053909;28;20103;-73
2022/01/08 02:59:49;;;;;;;18.00;16.10;;;;;;;;;;5056816;28;20068;-75
2022/01/08 03:02:16;;;;;;;16.85;15.23;;;;;;;;;;5094309;28;20567;-73
2022/01/08 03:04:45;;;;;;;18.65;15.65;;;;;;;;;;5083442;28;20159;-73
2022/01/08 03:07:12;;;;;;;18.88;17.05;;;;;;;;;;5066018;28;20402;-74
2022/01/08 03:09:42;;;;;;;17.20;15.40;;;;;;;;;;5075902;28;20053;-73
2022/01/08 03:12:09;;;;;;;20.50;15.88;;;;;;;;;;5062533;28;20390;-73
2022/01/08 03:14:36;;;;;;;18.63;16.35;;;;;;;;;;5036069;28;20056;-74
2022/01/08 03:17:04;;;;;;;20.52;18.05;;;;;;;;;;5036006;28;20102;-74
2022/01/08 03:19:33;;;;;;;18.48;16.55;;;;;;;;;;5035982;28;20056;-74
2022/01/08 03:22:03;;;;;;;18.83;16.83;;;;;;;;;;5036352;28;20041;-73
2022/01/08 03:24:30;;;;;;;24.27;17.55;;;;;;;;;;5036315;28;20079;-73
2022/01/08 03:26:57;;;;;;;18.23;16.50;;;;;;;;;;5035780;28;20052;-73
2022/01/08 03:29:26;;;;;;;20.50;17.15;;;;;;;;;;5044332;28;20049;-73
2022/01/08 03:31:53;;;;;;;19.90;17.42;;;;;;;;;;5037479;28;20126;-73
2022/01/08 03:34:20;;;;;;;17.65;15.75;;;;;;;;;;5053542;28;20421;-73
2022/01/08 03:36:47;;;;;;;18.75;16.15;;;;;;;;;;5035414;28;20421;-73
2022/01/08 03:39:14;;;;;;;19.13;17.30;;;;;;;;;;5019070;28;20059;-74
2022/01/08 03:41:42;;;;;;;17.88;16.00;;;;;;;;;;5053528;28;20493;-73
2022/01/08 03:44:09;;;;;;;17.70;15.93;;;;;;;;;;5052956;28;20056;-73
2022/01/08 03:46:37;;;;;;;18.42;16.40;;;;;;;;;;5035706;28;20055;-73
2022/01/08 03:51:32;;;;;;;20.05;17.05;;;;;;;;;;5035591;28;20049;-74
2022/01/08 03:53:59;;;;;;;17.73;15.75;;;;;;;;;;5053477;28;20048;-74
2022/01/08 03:56:27;;;;;;;18.73;16.80;;;;;;;;;;5035438;28;20127;-74
2022/01/08 03:58:54;;;;;;;21.40;17.27;;;;;;;;;;5053075;28;20045;-74
2022/01/08 04:01:21;;;;;;;18.20;16.27;;;;;;;;;;5053075;28;20049;-74
2022/01/08 04:03:48;;;;;;;18.92;16.55;;;;;;;;;;5018966;28;20041;-75
2022/01/08 04:06:15;;;;;;;21.63;17.77;;;;;;;;;;5052776;28;20049;-74
2022/01/08 04:08:42;;;;;;;21.50;18.13;;;;;;;;;;5018983;28;20133;-74
2022/01/08 04:11:09;;;;;;;21.70;16.95;;;;;;;;;;5052480;28;20126;-74
2022/01/08 04:13:39;;;;;;;21.00;16.90;;;;;;;;;;5019068;28;20096;-74
2022/01/08 04:16:13;;;;;;;18.92;17.02;;;;;;;;;;5035079;28;20041;-74
2022/01/08 04:18:40;;;;;;;19.58;17.27;;;;;;;;;;5052262;28;20138;-74
2022/01/08 04:23:40;;;;;;;20.05;17.13;;;;;;;;;;5071722;28;20508;-74
2022/01/08 04:26:07;;;;;;;18.15;16.25;;;;;;;;;;5072314;28;20043;-75
2022/01/08 04:28:34;;;;;;;18.85;15.70;;;;;;;;;;5062900;28;20485;-75
2022/01/08 04:31:01;;;;;;;19.55;16.50;;;;;;;;;;5054513;28;20091;-75
2022/01/08 04:33:28;;;;;;;20.85;17.55;;;;;;;;;;5071794;28;20167;-75
2022/01/08 04:35:55;;;;;;;20.48;17.75;;;;;;;;;;5053844;28;20049;-75
2022/01/08 04:38:23;;;;;;;20.73;18.52;;;;;;;;;;5048644;28;20468;-75
2022/01/08 04:40:50;;;;;;;20.48;18.27;;;;;;;;;;5061013;28;20127;-75
2022/01/08 04:43:17;;;;;;;18.35;16.35;;;;;;;;;;5058355;28;20123;-75
2022/01/08 04:45:44;;;;;;;16.73;14.25;;;;;;;;;;5048630;28;20048;-75
2022/01/08 04:48:11;;;;;;;16.00;14.40;;;;;;;;;;5054425;28;20052;-76
2022/01/08 04:50:38;;;;;;;16.95;15.23;;;;;;;;;;5054005;28;20048;-76
2022/01/08 04:53:05;;;;;;;16.48;13.80;;;;;;;;;;5046027;28;20159;-76
2022/01/08 04:55:32;;;;;;;17.13;14.18;;;;;;;;;;5052258;28;20072;-76
2022/01/08 04:57:59;;;;;;;16.60;14.90;;;;;;;;;;5018368;28;20083;-76
2022/01/08 05:00:26;;;;;;;16.02;12.30;;;;;;;;;;5051704;28;20079;-76
2022/01/08 05:02:53;;;;;;;14.95;13.30;;;;;;;;;;5062828;28;20500;-76
2022/01/08 05:05:20;;;;;;;18.50;15.30;;;;;;;;;;5037494;28;20443;-77
2022/01/08 05:07:48;;;;;;;16.15;14.48;;;;;;;;;;5081155;28;20055;-77
2022/01/08 05:10:15;;;;;;;15.73;14.20;;;;;;;;;;5066739;28;20047;-77
2022/01/08 05:12:42;;;;;;;15.15;13.52;;;;;;;;;;5054741;28;20044;-77
2022/01/08 05:15:09;;;;;;;18.80;13.60;;;;;;;;;;5053104;28;20404;-77
2022/01/08 05:17:38;;;;;;;18.38;16.63;;;;;;;;;;5070180;28;20040;-77
2022/01/08 05:20:08;;;;;;;16.95;14.43;;;;;;;;;;5053953;28;20725;-77
2022/01/08 05:25:20;;;;;;;17.13;15.32;;;;;;;;;;5070247;28;20079;-77
2022/01/08 05:27:48;;;;;;;19.25;16.70;;;;;;;;;;5069938;28;20043;-77
2022/01/08 05:30:17;;;;;;;18.65;15.50;;;;;;;;;;5070194;28;20056;-78
2022/01/08 05:32:44;;;;;;;17.42;15.63;;;;;;;;;;5057585;28;20076;-78
2022/01/08 05:35:11;;;;;;;17.33;15.48;;;;;;;;;;5034750;28;20481;-78
2022/01/08 05:37:39;;;;;;;17.38;15.50;;;;;;;;;;5051499;28;20049;-79
2022/01/08 05:40:07;;;;;;;23.35;16.38;;;;;;;;;;5034821;28;20124;-78
2022/01/08 05:42:34;;;;;;;17.40;14.68;;;;;;;;;;5033776;28;20072;-79
2022/01/08 05:45:01;;;;;;;20.15;15.50;;;;;;;;;;5051724;28;20052;-79
2022/01/08 05:47:33;;;;;;;18.98;16.33;;;;;;;;;;5035246;28;20493;-78
2022/01/08 05:50:01;;;;;;;18.73;16.38;;;;;;;;;;5051898;28;20041;-79
2022/01/08 05:52:28;;;;;;;17.85;16.05;;;;;;;;;;5052191;28;20084;-79
2022/01/08 05:54:56;;;;;;;20.85;14.95;;;;;;;;;;5047682;28;20056;-80
2022/01/08 05:57:23;;;;;;;20.98;16.85;;;;;;;;;;5054299;28;20079;-80
2022/01/08 05:59:50;;;;;;;21.65;17.85;;;;;;;;;;5071534;28;20544;-80
2022/01/08 06:02:17;;;;;;;17.05;15.35;;;;;;;;;;5054075;28;20037;-80
2022/01/08 06:04:44;;;;;;;17.35;14.35;;;;;;;;;;5071634;28;20049;-80
2022/01/08 06:07:13;;;;;;;14.35;12.85;;;;;;;;;;5054569;28;20067;-80
2022/01/08 06:09:40;;;;;;;16.90;13.02;;;;;;;;;;5060133;28;20045;-81
2022/01/08 06:12:07;;;;;;;17.30;13.80;;;;;;;;;;5051537;28;20045;-79
2022/01/08 06:14:34;;;;;;;15.23;13.75;;;;;;;;;;5034198;28;20505;-86
2022/01/08 06:17:02;;;;;;;14.20;12.70;;;;;;;;;;5017479;28;20095;-76
2022/01/08 06:19:29;;;;;;;13.52;11.63;;;;;;;;;;5034645;28;20515;-85
2022/01/08 06:21:56;;;;;;;13.65;12.15;;;;;;;;;;5034728;28;20080;-82
2022/01/08 06:24:23;;;;;;;18.35;12.68;;;;;;;;;;5017865;28;20494;-80
2022/01/08 06:26:50;;;;;;;16.83;11.52;;;;;;;;;;5054315;28;20057;-81
2022/01/08 06:29:17;;;;;;;13.63;12.30;;;;;;;;;;5047511;28;20496;-80
2022/01/08 06:31:44;;;;;;;14.70;13.20;;;;;;;;;;5042860;28;20045;-82
2022/01/08 06:34:11;;;;;;;14.13;12.50;;;;;;;;;;5041943;28;20048;-82
2022/01/08 06:36:38;;;;;;;16.65;11.95;;;;;;;;;;5060165;28;20053;-82
2022/01/08 06:39:06;;;;;;;12.68;11.30;;;;;;;;;;5062717;28;20090;-82
2022/01/08 06:41:32;;;;;;;15.48;13.02;;;;;;;;;;5055791;28;20036;-80
2022/01/08 06:43:59;;;;;;;14.73;11.32;;;;;;;;;;5063107;28;20098;-82
2022/01/08 06:46:26;;;;;;;15.52;13.18;;;;;;;;;;5054388;28;20045;-80
2022/01/08 06:48:53;;;;;;;14.82;12.18;;;;;;;;;;5044853;28;20048;-80
2022/01/08 06:51:21;;;;;;;16.45;14.77;;;;;;;;;;5063031;28;20052;-80
2022/01/08 06:53:47;;;;;;;15.13;13.13;;;;;;;;;;5061695;28;20043;-81
2022/01/08 06:56:17;;;;;;;16.35;14.65;;;;;;;;;;5053107;28;20040;-74
2022/01/08 06:58:45;;;;;;;17.23;15.13;;;;;;;;;;5037914;28;20056;-75
2022/01/08 07:01:12;;;;;;;17.67;15.80;;;;;;;;;;5063072;28;20044;-77
2022/01/08 07:03:39;;;;;;;21.30;19.10;;;;;;;;;;5036410;28;20455;-73
2022/01/08 07:06:06;;;;;;;17.90;15.65;;;;;;;;;;5063932;28;20565;-75
2022/01/08 07:08:33;;;;;;;17.63;15.82;;;;;;;;;;5045797;28;20078;-74
2022/01/08 07:11:01;;;;;;;24.02;18.25;;;;;;;;;;5063574;28;20445;-71
2022/01/08 07:13:32;;;;;;;20.65;16.77;;;;;;;;;;5048309;28;20083;-73
2022/01/08 07:15:59;;;;;;;18.73;16.73;;;;;;;;;;5057480;28;20053;-73
2022/01/08 07:18:26;;;;;;;19.35;17.27;;;;;;;;;;5044271;28;20083;-74
2022/01/08 07:20:54;;;;;;;18.55;16.25;;;;;;;;;;5045378;28;20060;-71
2022/01/08 07:23:22;;;;;;;16.52;14.90;;;;;;;;;;5029579;28;20501;-72
2022/01/08 07:25:49;;;;;;;19.10;15.35;;;;;;;;;;5049853;28;20052;-73
2022/01/08 07:28:16;;;;;;;18.48;16.50;;;;;;;;;;5065807;28;20057;-72
2022/01/08 07:30:44;;;;;;;17.90;15.95;;;;;;;;;;5056194;28;20056;-78
2022/01/08 07:33:11;;;;;;;20.65;15.90;;;;;;;;;;5082339;28;20062;-81
2022/01/08 07:35:39;;;;;;;16.77;15.07;;;;;;;;;;5058481;28;20474;-78
2022/01/08 07:38:06;;;;;;;18.52;16.63;;;;;;;;;;5049672;28;20076;-78
2022/01/08 07:40:33;;;;;;;16.85;15.15;;;;;;;;;;5052513;28;20097;-80
2022/01/08 07:43:00;;;;;;;16.40;14.07;;;;;;;;;;5058045;28;20052;-81
2022/01/08 07:45:27;;;;;;;18.33;14.20;;;;;;;;;;5059178;28;20068;-81
2022/01/08 07:47:54;;;;;;;17.25;13.13;;;;;;;;;;5069306;28;20497;-80
2022/01/08 07:50:22;;;;;;;18.98;12.30;;;;;;;;;;5079457;28;20080;-80
2022/01/08 07:52:50;;;;;;;14.80;11.45;;;;;;;;;;5052101;28;20136;-81
2022/01/08 07:55:17;;;;;;;12.55;11.25;;;;;;;;;;5058661;28;20075;-83
2022/01/08 07:57:44;;;;;;;14.75;11.98;;;;;;;;;;5053788;28;20044;-83
2022/01/08 08:00:12;;;;;;;12.00;10.85;;;;;;;;;;5048198;28;20416;-84
2022/01/08 08:02:39;;;;;;;13.27;11.15;;;;;;;;;;5066585;28;20044;-83
2022/01/08 08:05:06;;;;;;;21.40;16.45;;;;;;;;;;5078576;28;20036;-83
2022/01/08 08:07:38;;;;;;;39.50;24.08;;;;;;;;;;5054648;28;20135;-81
2022/01/08 08:10:08;;;;;;;39.03;27.90;;;;;;;;;;5078811;28;20060;-84
2022/01/08 08:12:35;;;;;;;27.35;22.08;;;;;;;;;;5070980;28;20421;-88
2022/01/08 08:15:04;;;;;;;27.08;20.42;;;;;;;;;;5075491;28;20055;-86
2022/01/08 08:17:33;;;;;;;22.58;20.15;;;;;;;;;;5089045;28;20061;-86
2022/01/08 08:20:01;;;;;;;22.90;19.67;;;;;;;;;;5076752;28;20476;-85
2022/01/08 08:22:28;;;;;;;26.33;19.35;;;;;;;;;;5066953;28;20040;-88
2022/01/08 08:24:55;;;;;;;52.15;35.22;;;;;;;;;;5073597;28;20381;-81
2022/01/08 08:27:22;;;;;;;53.45;38.67;;;;;;;;;;5088975;28;20314;-89
2022/01/08 08:29:49;;;;;;;24.83;21.42;;;;;;;;;;5088771;28;20060;-91
2022/01/08 08:32:16;;;;;;;22.08;18.48;;;;;;;;;;5101207;28;20044;-90
2022/01/08 08:34:43;;;;;;;19.55;17.52;;;;;;;;;;5094882;28;20071;-87
2022/01/08 08:37:11;;;;;;;23.15;18.35;;;;;;;;;;5069753;28;20074;-89
2022/01/08 08:39:38;;;;;;;21.90;19.30;;;;;;;;;;5084596;28;20049;-82
2022/01/08 08:42:05;;;;;;;18.67;16.65;;;;;;;;;;5071092;28;20044;-84
2022/01/08 08:44:32;;;;;;;25.02;18.08;;;;;;;;;;5059684;28;20055;-85
2022/01/08 08:46:59;;;;;;;21.15;16.92;;;;;;;;;;5079228;28;20533;-81
2022/01/08 08:49:27;;;;;;;22.95;17.23;;;;;;;;;;5068125;28;20068;-79
2022/01/08 08:51:54;;;;;;;23.02;17.85;;;;;;;;;;5084581;28;20052;-78
2022/01/08 08:54:22;;;;;;;20.48;16.95;;;;;;;;;;5081230;28;20052;-79
2022/01/08 08:56:49;;;;;;;22.05;16.38;;;;;;;;;;5037074;28;20044;-77
2022/01/08 08:59:16;;;;;;;20.85;16.50;;;;;;;;;;5083587;28;20049;-77
2022/01/08 09:01:43;;;;;;;21.30;16.30;;;;;;;;;;5065449;28;20480;-78
2022/01/08 09:04:10;;;;;;;18.35;15.50;;;;;;;;;;5075554;28;20409;-80
2022/01/08 09:06:37;;;;;;;19.75;16.15;;;;;;;;;;5072955;28;20131;-82
2022/01/08 09:09:05;;;;;;;17.75;15.90;;;;;;;;;;5054757;28;20053;-82
2022/01/08 09:11:34;;;;;;;23.25;17.17;;;;;;;;;;5034105;28;20049;-73
2022/01/08 09:14:01;;;;;;;20.65;16.90;;;;;;;;;;5034937;28;20104;-75
2022/01/08 09:16:28;;;;;;;19.02;17.05;;;;;;;;;;5053755;28;20049;-76
2022/01/08 09:18:55;;;;;;;16.60;13.80;;;;;;;;;;5058416;28;20041;-77
2022/01/08 09:21:22;;;;;;;17.92;16.05;;;;;;;;;;5034375;28;20636;-76
2022/01/08 09:23:49;;;;;;;19.15;16.23;;;;;;;;;;5017402;28;20479;-76
2022/01/08 09:26:16;;;;;;;33.47;27.92;;;;;;;;;;5018047;28;20139;-75
2022/01/08 09:28:43;;;;;;;108.88;81.45;;;;;;;;;;5058192;28;20040;-77
2022/01/08 09:31:11;;;;;;;30.85;20.63;;;;;;;;;;5038961;28;20077;-73
2022/01/08 09:33:39;;;;;;;18.58;15.70;;;;;;;;;;5031611;28;20046;-75
2022/01/08 09:36:07;;;;;;;14.65;13.20;;;;;;;;;;5027871;28;20111;-76
2022/01/08 09:38:34;;;;;;;18.63;14.52;;;;;;;;;;5050506;28;20098;-73
2022/01/08 09:41:01;;;;;;;16.08;14.38;;;;;;;;;;5033375;28;20132;-73
2022/01/08 09:43:28;;;;;;;15.02;12.88;;;;;;;;;;5051216;28;20053;-74
2022/01/08 09:45:55;;;;;;;15.57;13.90;;;;;;;;;;5050318;28;20049;-73
2022/01/08 09:48:23;;;;;;;15.63;13.18;;;;;;;;;;5032197;28;20053;-74
2022/01/08 09:50:50;;;;;;;13.35;12.10;;;;;;;;;;5013465;28;20446;-74
2022/01/08 09:53:17;;;;;;;14.60;12.23;;;;;;;;;;4998029;28;20120;-74
2022/01/08 09:55:44;;;;;;;12.85;11.43;;;;;;;;;;5031717;28;20056;-74
2022/01/08 09:58:11;;;;;;;12.43;11.10;;;;;;;;;;5031895;28;20347;-74
2022/01/08 10:00:39;;;;;;;11.98;10.65;;;;;;;;;;5031531;28;20045;-77
2022/01/08 10:03:35;;;;;;;12.82;11.63;;;;;;;;;;5013704;28;20053;-75
2022/01/08 10:06:03;;;;;;;13.20;11.48;;;;;;;;;;5001451;28;20498;-74
2022/01/08 10:08:42;;;;;;;11.57;10.40;;;;;;;;;;5030811;28;20153;-74
2022/01/08 10:11:10;;;;;;;14.95;11.95;;;;;;;;;;5013936;28;20054;-74
2022/01/08 10:13:40;;;;;;;13.20;11.70;;;;;;;;;;5033943;28;20044;-75
2022/01/08 10:19:01;;;;;;;14.00;12.10;;;;;;;;;;5019747;28;20067;-75
2022/01/08 10:21:30;;;;;;;14.02;11.00;;;;;;;;;;5033751;28;20106;-75
2022/01/08 10:24:04;;;;;;;10.80;9.48;;;;;;;;;;5036794;28;20520;-75
2022/01/08 10:26:34;;;;;;;10.25;9.23;;;;;;;;;;5037441;28;20144;-75
2022/01/08 10:29:22;;;;;;;12.52;9.93;;;;;;;;;;5036708;28;20501;-75
2022/01/08 10:31:51;;;;;;;17.10;9.60;;;;;;;;;;5039895;28;20057;-75
2022/01/08 10:34:20;;;;;;;9.73;8.68;;;;;;;;;;5056607;28;20040;-75
2022/01/08 10:36:54;;;;;;;9.95;8.93;;;;;;;;;;5020542;28;20041;-76
2022/01/08 10:39:28;;;;;;;12.77;7.97;;;;;;;;;;5054829;28;20048;-75
2022/01/08 10:41:57;;;;;;;8.48;7.65;;;;;;;;;;5037172;28;20068;-75
2022/01/08 10:44:26;;;;;;;9.13;7.80;;;;;;;;;;5050575;28;20041;-75
2022/01/08 10:47:00;;;;;;;8.25;7.35;;;;;;;;;;5036328;28;20059;-76
2022/01/08 10:49:33;;;;;;;5.65;5.10;;;;;;;;;;5037134;28;20401;-76
2022/01/08 10:52:03;;;;;;;8.80;5.47;;;;;;;;;;5036838;28;20055;-76
2022/01/08 10:54:35;;;;;;;6.82;6.05;;;;;;;;;;5036687;28;20106;-75
2022/01/08 10:57:06;;;;;;;7.10;6.05;;;;;;;;;;5020609;28;20110;-75
2022/01/08 10:59:34;;;;;;;5.80;5.30;;;;;;;;;;5053814;28;20053;-76
2022/01/08 11:02:08;;;;;;;10.18;6.72;;;;;;;;;;5036447;28;20052;-76
2022/01/08 11:04:50;;;;;;;6.90;6.03;;;;;;;;;;5036651;28;20055;-76
2022/01/08 11:07:27;;;;;;;7.28;6.18;;;;;;;;;;5053792;28;20413;-78
2022/01/08 11:10:07;;;;;;;8.02;6.25;;;;;;;;;;5053408;28;20471;-76
2022/01/08 11:12:38;;;;;;;6.07;5.45;;;;;;;;;;5056510;28;20052;-76
2022/01/08 11:15:25;;;;;;;8.43;5.80;;;;;;;;;;5056529;28;20131;-76
2022/01/08 11:17:57;;;;;;;7.40;6.55;;;;;;;;;;5059102;28;20045;-76
2022/01/08 11:20:45;;;;;;;7.25;5.50;;;;;;;;;;5086907;28;20033;-76
2022/01/08 11:23:13;;;;;;;8.70;6.60;;;;;;;;;;5055858;28;20416;-76
2022/01/08 11:25:40;;;;;;;7.10;6.40;;;;;;;;;;5055227;28;20412;-78
2022/01/08 11:28:14;;;;;;;6.85;6.25;;;;;;;;;;5072291;28;20560;-76
2022/01/08 11:31:00;;;;;;;9.37;6.87;;;;;;;;;;5056105;28;20048;-76
2022/01/08 11:33:32;;;;;;;8.98;6.22;;;;;;;;;;5058075;28;20277;-75
2022/01/08 11:35:59;;;;;;;8.68;6.93;;;;;;;;;;5056196;28;20052;-76
2022/01/08 11:38:27;;;;;;;7.57;6.57;;;;;;;;;;5073195;28;20123;-76
2022/01/08 11:40:56;;;;;;;8.40;5.57;;;;;;;;;;5019396;28;20053;-70
2022/01/08 11:43:27;;;;;;;8.95;5.63;;;;;;;;;;5038124;28;20105;-74
2022/01/08 11:45:57;;;;;;;6.43;5.57;;;;;;;;;;5088660;28;20098;-73
2022/01/08 11:48:44;;;;;;;7.20;6.47;;;;;;;;;;5055319;28;20377;-76
2022/01/08 11:51:16;;;;;;;6.55;5.30;;;;;;;;;;5055296;28;20405;-72
2022/01/08 11:53:50;;;;;;;7.55;6.00;;;;;;;;;;5072881;28;20044;-72
2022/01/08 11:56:27;;;;;;;9.40;6.57;;;;;;;;;;5068808;28;20101;-71
2022/01/08 11:59:21;;;;;;;6.68;5.88;;;;;;;;;;5055678;28;20040;-70
2022/01/08 12:02:09;;;;;;;7.47;5.87;;;;;;;;;;5052985;28;20056;-74
2022/01/08 12:04:36;;;;;;;6.30;5.70;;;;;;;;;;5054802;28;20518;-70
2022/01/08 12:07:32;;;;;;;7.15;5.75;;;;;;;;;;5054641;28;20124;-71
2022/01/08 12:10:09;;;;;;;;;;;;;;;;;;5048012;28;20063;-71
2022/01/08 12:12:50;;;;;;;7.15;6.35;;;;;;;;;;5072880;28;20023;-71
2022/01/08 12:15:39;;;;;;;6.28;5.70;;;;;;;;;;5062440;28;20115;-71
2022/01/08 12:18:08;;;;;;;7.60;6.30;;;;;;;;;;5060339;28;20059;-71
2022/01/08 12:20:39;;;;;;;8.27;6.57;;;;;;;;;;5041077;28;20137;-69
2022/01/08 12:23:31;;;;;;;7.07;6.38;;;;;;;;;;5044692;28;20053;-72
2022/01/08 12:26:03;;;;;;;8.68;6.38;;;;;;;;;;5067970;28;20051;-72
2022/01/08 12:28:58;;;;;;;8.57;7.68;;;;;;;;;;5048600;28;20701;-73
2022/01/08 12:31:44;;;;;;;9.02;7.88;;;;;;;;;;5047369;28;20110;-71
2022/01/08 12:34:19;;;;;;;7.72;6.93;;;;;;;;;;5049353;28;20052;-71
2022/01/08 12:36:54;;;;;;;8.38;7.57;;;;;;;;;;5076100;28;20072;-70
2022/01/08 12:39:43;;;;;;;7.60;6.80;;;;;;;;;;5064056;28;20496;-71
2022/01/08 12:42:22;;;;;;;9.95;7.30;;;;;;;;;;5065080;28;20443;-71
2022/01/08 12:45:07;;;;;;;8.07;7.28;;;;;;;;;;5064226;28;20432;-71
2022/01/08 12:47:38;;;;;;;9.63;8.73;;;;;;;;;;5058153;28;20469;-75
2022/01/08 12:50:34;;;;;;;10.05;8.70;;;;;;;;;;5063635;28;20041;-75
2022/01/08 12:53:07;;;;;;;11.63;9.02;;;;;;;;;;5084532;28;20610;-76
2022/01/08 12:55:53;;;;;;;10.77;9.63;;;;;;;;;;5065756;28;20067;-77
2022/01/08 12:58:25;;;;;;;10.68;9.32;;;;;;;;;;5046149;28;20063;-77
2022/01/08 13:00:56;;;;;;;11.40;9.98;;;;;;;;;;5046809;28;20110;-74
2022/01/08 13:03:37;;;;;;;13.10;10.88;;;;;;;;;;5048994;28;20072;-75
2022/01/08 13:06:13;;;;;;;14.05;10.48;;;;;;;;;;5060973;28;20052;-76
2022/01/08 13:08:52;;;;;;;12.15;10.95;;;;;;;;;;5047175;28;20505;-76
2022/01/08 13:11:31;;;;;;;14.15;10.63;;;;;;;;;;5053313;28;20493;-76
2022/01/08 13:14:05;;;;;;;12.63;11.32;;;;;;;;;;5077963;28;20044;-75
2022/01/08 13:16:44;;;;;;;11.88;10.55;;;;;;;;;;5047081;28;20052;-74
2022/01/08 13:19:22;;;;;;;14.18;10.32;;;;;;;;;;5045187;28;20152;-74
2022/01/08 13:21:55;;;;;;;11.68;10.48;;;;;;;;;;5040624;28;20424;-77
2022/01/08 13:24:23;;;;;;;13.82;12.20;;;;;;;;;;5050396;28;20056;-77
2022/01/08 13:27:00;;;;;;;13.48;11.00;;;;;;;;;;5051670;28;20493;-74
2022/01/08 13:29:28;;;;;;;12.75;10.30;;;;;;;;;;5051403;28;20048;-74
2022/01/08 13:32:02;;;;;;;12.68;11.38;;;;;;;;;;5059465;28;20559;-75
2022/01/08 13:34:35;;;;;;;12.32;11.13;;;;;;;;;;5055756;28;20045;-74
2022/01/08 13:37:10;;;;;;;12.38;11.05;;;;;;;;;;5051667;28;20073;-75
2022/01/08 13:39:50;;;;;;;15.88;11.25;;;;;;;;;;5035688;28;20048;-74
2022/01/08 13:42:37;;;;;;;14.05;10.77;;;;;;;;;;5051500;28;20102;-74
2022/01/08 13:45:07;;;;;;;12.77;10.80;;;;;;;;;;5031068;28;20075;-75
2022/01/08 13:47:43;;;;;;;12.40;11.15;;;;;;;;;;5072753;28;20049;-75
2022/01/08 13:50:23;;;;;;;10.77;9.68;;;;;;;;;;5057616;28;20131;-74
2022/01/08 13:53:02;;;;;;;12.43;11.13;;;;;;;;;;5057454;28;20048;-75
2022/01/08 13:55:47;;;;;;;14.60;11.52;;;;;;;;;;5035381;28;20499;-73
2022/01/08 13:58:16;;;;;;;11.63;10.38;;;;;;;;;;5073532;28;20056;-74
2022/01/08 14:00:51;;;;;;;12.95;10.73;;;;;;;;;;5057226;28;20052;-75
2022/01/08 14:03:22;;;;;;;12.20;10.35;;;;;;;;;;5056856;28;20048;-75
2022/01/08 14:05:55;;;;;;;12.82;11.63;;;;;;;;;;5057367;28;20068;-74
2022/01/08 14:08:22;;;;;;;11.75;10.55;;;;;;;;;;5040881;28;20389;-75
2022/01/08 14:10:53;;;;;;;13.10;10.30;;;;;;;;;;5062823;28;20048;-74
2022/01/08 14:13:26;;;;;;;15.80;12.07;;;;;;;;;;5035637;28;20048;-76
2022/01/08 14:16:01;;;;;;;16.25;11.90;;;;;;;;;;5041286;28;20045;-77
2022/01/08 14:18:30;;;;;;;13.10;9.80;;;;;;;;;;5056948;28;20040;-75
2022/01/08 14:21:15;;;;;;;12.55;11.15;;;;;;;;;;5060046;28;20060;-75
2022/01/08 14:23:43;;;;;;;13.20;10.25;;;;;;;;;;5045110;28;20141;-76
2022/01/08 14:26:23;;;;;;;14.95;11.38;;;;;;;;;;5061147;28;20471;-75
2022/01/08 14:29:04;;;;;;;11.68;10.52;;;;;;;;;;5045575;28;20069;-75
2022/01/08 14:31:32;;;;;;;14.05;12.32;;;;;;;;;;5045581;28;20532;-79
2022/01/08 14:34:03;;;;;;;13.90;12.55;;;;;;;;;;5033312;28;20044;-77
2022/01/08 14:36:56;;;;;;;10.27;9.27;;;;;;;;;;5046894;28;20390;-76
2022/01/08 14:39:29;;;;;;;12.77;11.13;;;;;;;;;;5060517;28;20048;-79
2022/01/08 14:42:02;;;;;;;13.93;10.32;;;;;;;;;;5061646;28;20106;-77
2022/01/08 14:44:29;;;;;;;10.40;9.30;;;;;;;;;;5037322;28;20056;-79
2022/01/08 14:46:57;;;;;;;10.75;9.18;;;;;;;;;;5036107;28;20096;-80
2022/01/08 14:49:24;;;;;;;10.27;9.27;;;;;;;;;;5036849;28;20063;-78
2022/01/08 14:51:52;;;;;;;11.52;10.30;;;;;;;;;;5054920;28;20080;-78
2022/01/08 14:54:27;;;;;;;33.70;21.75;;;;;;;;;;5036691;28;20056;-78
2022/01/08 14:56:54;;;;;;;27.45;19.35;;;;;;;;;;5038244;28;20132;-78
2022/01/08 14:59:22;;;;;;;14.95;11.00;;;;;;;;;;5049358;28;20143;-82
2022/01/08 15:01:49;;;;;;;20.02;15.25;;;;;;;;;;5042952;28;20095;-83
2022/01/08 15:04:17;;;;;;;13.90;12.35;;;;;;;;;;5044266;28;20571;-81
2022/01/08 15:06:45;;;;;;;14.23;12.65;;;;;;;;;;5037909;28;20472;-77